createdAt,value
2023-05-23T00:03:04.510Z,101524.72
2023-05-23T00:13:26.762Z,101514.38
2023-05-23T00:23:48.175Z,101524.03
2023-05-23T00:34:09.588Z,101510.22
2023-05-23T00:44:31.098Z,101512.94
2023-05-23T00:54:52.531Z,101511.25
2023-05-23T01:05:17.427Z,101509.91
2023-05-23T01:16:03.139Z,101495.28
2023-05-23T01:26:26.260Z,101487.84
2023-05-23T01:36:49.986Z,101501.53
2023-05-23T01:47:11.763Z,101500.84
2023-05-23T01:57:33.731Z,101507.34
2023-05-23T02:07:55.139Z,101504.97
2023-05-23T02:18:16.541Z,101519.84
2023-05-23T02:28:37.997Z,101511.97
2023-05-23T02:38:59.499Z,101513.69
2023-05-23T02:49:20.898Z,101530.28
2023-05-23T02:59:42.501Z,101532.28
2023-05-23T03:10:04.137Z,101530.81
2023-05-23T03:20:25.641Z,101544.75
2023-05-23T03:30:47.094Z,101554.75
2023-05-23T03:41:08.603Z,101561.97
2023-05-23T03:51:30.088Z,101566.16
2023-05-23T04:01:51.555Z,101581.94
2023-05-23T04:12:13.415Z,101585.63
2023-05-23T04:22:34.949Z,101608.28
2023-05-23T04:32:58.248Z,101619.00
2023-05-23T04:43:20.001Z,101627.94
2023-05-23T04:53:41.659Z,101649.31
2023-05-23T05:04:03.354Z,101690.47
2023-05-23T05:14:25.662Z,101689.19
2023-05-23T05:24:47.101Z,101694.88
2023-05-23T05:35:08.827Z,101723.06
2023-05-23T05:45:30.296Z,101734.78
2023-05-23T05:55:51.701Z,101748.84
2023-05-23T06:06:13.143Z,101775.03
2023-05-23T06:16:34.614Z,101795.91
2023-05-23T06:26:56.051Z,101801.13
2023-05-23T06:37:17.999Z,101807.19
2023-05-23T06:47:39.479Z,101838.41
2023-05-23T06:58:01.019Z,101849.28
2023-05-23T07:08:22.437Z,101867.84
2023-05-23T07:18:44.124Z,101885.50
2023-05-23T07:29:05.894Z,101917.91
2023-05-23T07:39:27.985Z,101918.91
2023-05-23T07:49:49.584Z,101934.50
2023-05-23T08:00:12.177Z,101964.97
2023-05-23T08:10:33.604Z,101958.16
2023-05-23T08:20:55.088Z,101987.59
2023-05-23T08:31:16.773Z,101997.06
2023-05-23T08:41:39.280Z,102004.16
2023-05-23T08:52:02.118Z,102010.16
2023-05-23T09:02:24.702Z,102017.47
2023-05-23T09:12:46.201Z,102025.84
2023-05-23T09:23:07.670Z,102049.25
2023-05-23T09:33:29.755Z,102056.22
2023-05-23T09:43:52.202Z,102067.09
2023-05-23T09:54:13.692Z,102076.03
2023-05-23T10:04:35.707Z,102080.75
2023-05-23T10:14:57.763Z,102082.78
2023-05-23T10:25:19.281Z,102087.53
2023-05-23T10:36:03.597Z,102095.31
2023-05-23T10:46:45.001Z,102102.03
2023-05-23T10:57:06.510Z,102101.41
2023-05-23T11:07:32.472Z,102104.09
2023-05-23T11:17:55.073Z,102122.88
2023-05-23T11:28:17.419Z,102120.84
2023-05-23T11:38:38.891Z,102139.56
2023-05-23T11:49:00.364Z,102147.19
2023-05-23T11:59:22.875Z,102148.84
2023-05-23T12:09:44.491Z,102142.03
2023-05-23T12:20:06.572Z,102167.81
2023-05-23T12:30:28.049Z,102165.97
2023-05-23T12:41:07.412Z,102175.63
2023-05-23T12:51:28.884Z,102172.91
2023-05-23T13:01:50.354Z,102180.63
2023-05-23T13:12:12.385Z,102188.47
2023-05-23T13:22:33.836Z,102188.13
2023-05-23T13:32:55.316Z,102192.94
2023-05-23T13:43:16.806Z,102198.06
2023-05-23T13:53:38.304Z,102184.31
2023-05-23T14:03:59.735Z,102193.34
2023-05-23T14:14:21.147Z,102211.63
2023-05-23T14:24:42.589Z,102210.25
2023-05-23T14:35:04.688Z,102219.88
2023-05-23T14:45:26.304Z,102208.44
2023-05-23T14:55:47.798Z,102214.34
2023-05-23T15:06:09.193Z,102220.81
2023-05-23T15:16:35.075Z,102235.09
2023-05-23T15:27:04.915Z,102248.38
2023-05-23T15:37:33.527Z,102245.63
2023-05-23T15:47:55.109Z,102245.09
2023-05-23T15:58:16.586Z,102241.75
2023-05-23T16:08:38.347Z,102247.41
2023-05-23T16:18:59.938Z,102257.75
2023-05-23T16:29:21.464Z,102247.78
2023-05-23T16:39:43.111Z,102250.09
2023-05-23T16:50:05.023Z,102260.97
2023-05-23T17:00:26.776Z,102263.50
2023-05-23T17:10:48.200Z,102267.03
2023-05-23T17:21:09.663Z,102268.97
2023-05-23T17:31:31.478Z,102263.91
2023-05-23T17:41:52.996Z,102278.44
2023-05-23T17:52:15.060Z,102291.59
2023-05-23T18:02:36.640Z,102298.75
2023-05-23T18:12:58.052Z,102319.19
2023-05-23T18:23:19.567Z,102303.78
2023-05-23T18:33:41.294Z,102314.16
2023-05-23T18:44:02.820Z,102323.13
2023-05-23T18:54:24.318Z,102347.03
2023-05-23T19:04:45.833Z,102338.56
2023-05-23T19:15:07.781Z,102348.09
2023-05-23T19:25:29.334Z,102365.72
2023-05-23T19:35:51.534Z,102364.19
2023-05-23T19:46:13.676Z,102357.50
2023-05-23T19:56:36.194Z,102369.84
2023-05-23T20:06:57.807Z,102371.72
2023-05-23T20:17:19.298Z,102368.34
2023-05-23T20:27:40.717Z,102369.34
2023-05-23T20:38:02.277Z,102367.75
2023-05-23T20:48:23.673Z,102363.31
2023-05-23T20:58:45.829Z,102354.75
2023-05-23T21:09:08.785Z,102360.13
2023-05-23T21:19:30.381Z,102368.84
2023-05-23T21:29:53.664Z,102377.50
2023-05-23T21:40:15.342Z,102370.66
2023-05-23T21:50:36.751Z,102356.81
2023-05-23T22:00:58.212Z,102356.94
2023-05-23T22:11:19.607Z,102358.72
2023-05-23T22:21:41.020Z,102364.88
2023-05-23T22:32:02.586Z,102358.16
2023-05-23T22:42:24.111Z,102357.47
2023-05-23T22:52:45.556Z,102356.69
2023-05-23T23:03:07.470Z,102366.25
2023-05-23T23:13:29.113Z,102368.88
2023-05-23T23:23:50.564Z,102353.41
2023-05-23T23:34:12.422Z,102339.66
2023-05-23T23:44:33.845Z,102340.50
2023-05-23T23:54:55.283Z,102337.97
